Worcester, Massachusetts
Current Conditions -  °F | °C
As of 5:54 AM on Monday 20 Oct 2014 (Local Time) from KORH Reporting Station
Clear Clear  
Wind Chill: 32°   Ceiling: Unl
Heat Index: 32°   Visibility: 10mi
Dew Point: 25°   Wind: 3mph
Humidity: 75%   Direction: 220°SW
Pressure: 29.99"   Gusts: NA
Location:  42.26°N, 71.8°W
Report Text: KORH 200954Z AUTO 22003KT 10SM CLR 00/M04 A2999 RMK AO2 SLP167 T00001039
Loading
Personal Weather Stations






























Interactive Weather Map New forecast layout! Learn more

10-Day Weather Forecast

Advertisements
Track Severe Weather on mobile